Nearby METAR Reports

 

EKAH - Tirstrup (civ/Mi, Denmark
Distance from station: SSW 25km
Updated: 08/08/2020 15:50
Clear
Clear
 Wind from SE
Wind: SE 7 km/h
Temperature: 29°C
Dew Point: 10°C
Humidity: 31%
Barometer: 1022 hPa
Clouds: Clear
Visibility: 10 km
2020/08/08 13:50 EKAH 081350Z AUTO 14004KT 070V180 9999NDV NCD 29/10 Q1022
EKYT - Alborg, Denmark
Distance from station: NW 91km
Updated: 08/08/2020 15:50
Clear
Clear
 Wind from E
Wind: E 9 km/h
Temperature: 28°C
Heat Index: 28°C
Dew Point: 14°C
Humidity: 42%
Barometer: 1021 hPa
Clouds: Clear
Visibility: 10 km
2020/08/08 13:50 EKYT 081350Z AUTO 10005KT 070V140 9999 NCD 28/14 Q1021
EKKA - Karup (dan-Afb), Denmark
Distance from station: W 107km
Updated: 08/08/2020 15:50
Mostly cloudy
Mostly cloudy
 Wind from NNW
Wind: NNW 6 km/h
Temperature: 28°C
Heat Index: 28°C
Dew Point: 14°C
Humidity: 42%
Barometer: 1021 hPa
Clouds: Mostly cloudy
Visibility: 10 km
Cloud details: Mostly cloudy 4877 m
2020/08/08 13:50 EKKA 081350Z AUTO 34003KT 9999 BKN160/// 28/14 Q1021
 
EKOD - Odense/Beldringe, Denmark
Distance from station: SSW 116km
Updated: 08/08/2020 15:50
Clear
Clear
 Wind from NE
Wind: NE 15 km/h
Temperature: 28°C
Heat Index: 28°C
Dew Point: 15°C
Humidity: 45%
Barometer: 1021 hPa
Summary: Clear
Visibility: greater than 10 km
2020/08/08 13:50 EKOD 081350Z 04008KT 360V070 CAVOK 28/15 Q1021
EKBI - Billund Airport, Denmark
Distance from station: SW 134km
Updated: 08/08/2020 15:50
Mostly cloudy
Mostly cloudy
 Wind from calm
Wind: Calm
Temperature: 29°C
Heat Index: 29°C
Dew Point: 16°C
Humidity: 45%
Barometer: 1021 hPa
Clouds: Mostly cloudy
Visibility: 10 km
Cloud details: Mostly cloudy 5486 m
2020/08/08 13:50 EKBI 081350Z AUTO 00000KT 9999 BKN180/// 29/16 Q1021
EKCH - Copenhagen/Kastr, Denmark
Distance from station: SE 148km
Updated: 08/08/2020 15:50
Clear
Clear
 Wind from ENE
Wind: ENE 9 km/h
Temperature: 29°C
Heat Index: 29°C
Dew Point: 15°C
Humidity: 43%
Barometer: 1021 hPa
Clouds: Clear
Visibility: 10 km
2020/08/08 13:50 EKCH 081350Z AUTO 06005KT 030V090 9999 NCD 29/15 Q1021 NOSIG